createdAt,value
2019-02-08T00:01:45.539Z,37.70
2019-02-08T00:04:50.764Z,32.60
2019-02-08T00:07:55.972Z,33.37
2019-02-08T00:11:02.275Z,34.83
2019-02-08T00:14:07.681Z,38.10
2019-02-08T00:17:12.851Z,40.63
2019-02-08T00:20:18.228Z,39.83
2019-02-08T00:23:26.683Z,30.50
2019-02-08T00:26:30.278Z,41.40
2019-02-08T00:29:35.431Z,33.90
2019-02-08T00:32:40.523Z,35.67
2019-02-08T00:35:45.718Z,34.77
2019-02-08T00:38:50.815Z,33.17
2019-02-08T00:41:56.018Z,35.87
2019-02-08T00:45:01.133Z,32.77
2019-02-08T00:48:06.399Z,32.67
2019-02-08T00:51:11.476Z,36.47
2019-02-08T00:54:16.706Z,35.80
2019-02-08T00:57:21.891Z,37.53
2019-02-08T01:00:27.052Z,44.77
2019-02-08T01:03:32.701Z,36.20
2019-02-08T01:06:38.341Z,36.97
2019-02-08T01:09:43.494Z,39.03
2019-02-08T01:12:48.782Z,39.80
2019-02-08T01:15:54.253Z,43.13
2019-02-08T01:18:59.349Z,37.30
2019-02-08T01:22:06.914Z,37.57
2019-02-08T01:25:15.243Z,33.00
2019-02-08T01:28:20.378Z,35.13
2019-02-08T01:31:25.489Z,31.47
2019-02-08T01:34:30.672Z,30.97
2019-02-08T01:37:35.760Z,32.23
2019-02-08T01:40:40.994Z,32.03
2019-02-08T01:43:46.135Z,31.83
2019-02-08T01:46:51.261Z,32.27
2019-02-08T01:49:56.443Z,34.83
2019-02-08T01:53:01.768Z,31.43
2019-02-08T01:56:06.974Z,35.83
2019-02-08T01:59:12.204Z,34.37
2019-02-08T02:02:17.427Z,33.20
2019-02-08T02:05:22.629Z,35.93
2019-02-08T02:08:27.776Z,35.37
2019-02-08T02:11:32.903Z,35.57
2019-02-08T02:14:38.162Z,39.10
2019-02-08T02:17:43.293Z,38.57
2019-02-08T02:20:48.557Z,37.27
2019-02-08T02:23:56.212Z,36.23
2019-02-08T02:27:00.579Z,36.80
2019-02-08T02:30:08.305Z,33.80
2019-02-08T02:33:13.934Z,34.37
2019-02-08T02:36:19.056Z,35.53
2019-02-08T02:39:24.371Z,34.63
2019-02-08T02:42:29.530Z,36.50
2019-02-08T02:45:36.468Z,33.20
2019-02-08T02:48:41.591Z,32.03
2019-02-08T02:51:46.717Z,33.93
2019-02-08T02:54:52.033Z,32.93
2019-02-08T02:57:57.496Z,32.63
2019-02-08T03:01:02.685Z,31.03
2019-02-08T03:04:07.960Z,32.97
2019-02-08T03:07:13.067Z,36.60
2019-02-08T03:10:19.001Z,35.73
2019-02-08T03:13:24.261Z,37.80
2019-02-08T03:16:29.449Z,35.13
2019-02-08T03:19:34.565Z,32.83
2019-02-08T03:22:39.755Z,34.40
2019-02-08T03:25:44.945Z,32.80
2019-02-08T03:28:50.219Z,34.47
2019-02-08T03:31:55.276Z,36.90
2019-02-08T03:35:00.402Z,36.53
2019-02-08T03:38:05.765Z,35.50
2019-02-08T03:41:10.965Z,33.43
2019-02-08T03:44:16.188Z,38.67
2019-02-08T03:47:21.328Z,37.17
2019-02-08T03:50:26.460Z,35.07
2019-02-08T03:53:31.614Z,35.60
2019-02-08T03:56:36.705Z,34.83
2019-02-08T03:59:41.796Z,37.77
2019-02-08T04:02:46.973Z,36.00
2019-02-08T04:05:52.181Z,36.20
2019-02-08T04:08:57.343Z,41.27
2019-02-08T04:12:02.487Z,41.33
2019-02-08T04:15:09.901Z,35.83
2019-02-08T04:18:15.042Z,38.70
2019-02-08T04:21:20.178Z,39.03
2019-02-08T04:24:30.070Z,40.20
2019-02-08T04:27:32.165Z,36.87
2019-02-08T04:30:37.390Z,43.40
2019-02-08T04:33:43.559Z,37.20
2019-02-08T04:36:48.706Z,36.07
2019-02-08T04:39:53.883Z,34.57
2019-02-08T04:42:59.165Z,35.97
2019-02-08T04:46:04.257Z,35.60
2019-02-08T04:49:09.530Z,36.27
2019-02-08T04:52:14.700Z,35.53
2019-02-08T04:55:20.350Z,33.70
2019-02-08T04:58:25.463Z,35.83
2019-02-08T05:01:30.569Z,36.73
2019-02-08T05:04:35.750Z,34.93
2019-02-08T05:07:40.886Z,35.43
2019-02-08T05:10:46.081Z,33.87
2019-02-08T05:13:51.226Z,33.60
2019-02-08T05:16:56.306Z,32.63
2019-02-08T05:20:01.498Z,30.53
2019-02-08T05:23:06.741Z,31.97
2019-02-08T05:26:11.911Z,32.27
2019-02-08T05:29:17.041Z,31.63
2019-02-08T05:32:22.183Z,35.17
2019-02-08T05:35:27.654Z,37.03
2019-02-08T05:38:32.827Z,37.67
2019-02-08T05:41:38.081Z,38.57
2019-02-08T05:44:43.315Z,36.90
2019-02-08T05:47:48.519Z,35.03
2019-02-08T05:50:53.657Z,37.40
2019-02-08T05:53:58.794Z,34.97
2019-02-08T05:57:03.943Z,31.10
2019-02-08T06:00:32.161Z,34.83
2019-02-08T06:03:37.284Z,36.10
2019-02-08T06:06:42.393Z,34.13
2019-02-08T06:09:47.536Z,35.13
2019-02-08T06:12:52.622Z,33.77
2019-02-08T06:15:57.735Z,34.10
2019-02-08T06:19:02.865Z,29.67
2019-02-08T06:22:07.988Z,35.17
2019-02-08T06:25:13.593Z,34.57
2019-02-08T06:28:18.810Z,35.40
2019-02-08T06:31:23.939Z,34.70
2019-02-08T06:34:29.076Z,32.50
2019-02-08T06:37:34.278Z,35.70
2019-02-08T06:40:42.292Z,31.33
2019-02-08T06:43:47.518Z,32.60
2019-02-08T06:46:52.639Z,31.60
2019-02-08T06:49:57.858Z,35.57
2019-02-08T06:53:03.131Z,35.60
2019-02-08T06:56:11.043Z,35.07
2019-02-08T06:59:29.159Z,32.17
2019-02-08T07:02:43.304Z,31.57
2019-02-08T07:06:07.423Z,32.63
2019-02-08T07:09:34.593Z,31.67
2019-02-08T07:13:04.828Z,33.33
2019-02-08T07:16:28.952Z,32.80
2019-02-08T07:19:53.010Z,31.17
2019-02-08T07:23:32.301Z,32.70
2019-02-08T07:27:06.692Z,28.33
2019-02-08T07:30:29.275Z,30.00
2019-02-08T07:34:05.612Z,29.67
2019-02-08T07:37:28.636Z,28.57
2019-02-08T07:41:01.508Z,29.10
2019-02-08T07:44:42.843Z,29.10
2019-02-08T07:48:07.635Z,31.00
2019-02-08T07:51:43.721Z,34.47
2019-02-08T07:54:57.801Z,32.60
2019-02-08T07:58:12.375Z,43.60
2019-02-08T08:01:44.886Z,43.90
2019-02-08T08:05:08.913Z,31.83
2019-02-08T08:08:45.186Z,29.93
2019-02-08T08:12:18.924Z,28.63
2019-02-08T08:15:37.757Z,31.57
2019-02-08T08:19:08.390Z,33.40
2019-02-08T08:22:33.556Z,33.33
2019-02-08T08:25:59.329Z,35.47
2019-02-08T08:29:19.718Z,35.17
2019-02-08T08:32:39.332Z,35.40
2019-02-08T08:36:16.542Z,35.93
2019-02-08T08:39:41.770Z,33.47
2019-02-08T08:43:34.818Z,32.50
2019-02-08T08:47:06.027Z,34.33
2019-02-08T08:50:44.618Z,33.50
2019-02-08T08:54:36.835Z,35.13
2019-02-08T08:58:04.695Z,29.07
2019-02-08T09:01:39.701Z,25.87
2019-02-08T09:05:29.242Z,50.40
2019-02-08T09:09:26.069Z,31.87
2019-02-08T09:12:57.403Z,27.60
2019-02-08T09:16:34.561Z,24.83
2019-02-08T09:20:17.163Z,26.40
2019-02-08T09:23:53.851Z,26.90
2019-02-08T09:27:48.217Z,28.13
2019-02-08T09:31:44.158Z,27.40
2019-02-08T09:36:03.926Z,27.33
2019-02-08T09:39:46.008Z,28.27
2019-02-08T09:43:26.089Z,31.23
2019-02-08T09:46:59.721Z,29.30
2019-02-08T09:50:53.923Z,30.07
2019-02-08T09:54:36.013Z,29.93
2019-02-08T09:58:18.246Z,30.23
2019-02-08T10:01:55.700Z,30.60
2019-02-08T10:05:53.919Z,28.63
2019-02-08T10:09:41.648Z,40.13
2019-02-08T10:13:22.496Z,45.00
2019-02-08T10:17:10.774Z,29.20
2019-02-08T10:20:40.474Z,26.47
2019-02-08T10:24:22.606Z,23.97
2019-02-08T10:28:12.835Z,24.37
2019-02-08T10:31:52.248Z,29.00
2019-02-08T10:35:34.346Z,27.07
2019-02-08T10:39:44.924Z,29.40
2019-02-08T10:43:25.927Z,26.67
2019-02-08T10:47:06.308Z,15.87
2019-02-08T10:50:55.910Z,11.90
2019-02-08T10:54:34.228Z,11.70
2019-02-08T10:58:15.341Z,12.47
2019-02-08T11:02:04.520Z,13.13
2019-02-08T11:05:47.131Z,10.00
2019-02-08T11:09:35.859Z,9.57
2019-02-08T11:13:46.080Z,9.23
2019-02-08T11:17:22.601Z,9.77
2019-02-08T11:23:39.880Z,7.93
2019-02-08T11:26:45.718Z,7.70
2019-02-08T11:29:51.078Z,6.90
2019-02-08T11:32:56.470Z,8.37
2019-02-08T11:36:01.857Z,8.13
2019-02-08T11:39:13.816Z,7.33
2019-02-08T11:42:19.111Z,6.47
2019-02-08T11:45:24.937Z,6.97
2019-02-08T11:48:30.175Z,7.33
2019-02-08T11:51:35.533Z,6.63
2019-02-08T11:54:40.834Z,7.27
2019-02-08T11:57:46.253Z,7.83
2019-02-08T12:00:54.219Z,5.30
2019-02-08T12:03:59.617Z,5.70
2019-02-08T12:07:05.122Z,7.50
2019-02-08T12:10:11.199Z,8.83
2019-02-08T12:13:16.525Z,9.47
2019-02-08T12:16:21.829Z,8.13
2019-02-08T12:19:27.105Z,7.47
2019-02-08T12:22:32.332Z,10.80
2019-02-08T12:25:37.678Z,5.03
2019-02-08T12:28:43.057Z,3.97
2019-02-08T12:31:48.348Z,2.67
2019-02-08T12:34:53.599Z,2.60
2019-02-08T12:37:58.905Z,1.70
2019-02-08T12:41:09.693Z,1.70
2019-02-08T12:44:12.026Z,1.30
2019-02-08T12:47:17.547Z,1.60
2019-02-08T12:50:22.890Z,2.13
2019-02-08T12:53:28.228Z,6.27
2019-02-08T12:56:33.473Z,3.07
2019-02-08T12:59:38.848Z,1.20
2019-02-08T13:02:44.253Z,2.30
2019-02-08T13:05:49.546Z,2.27
2019-02-08T13:08:54.859Z,1.80
2019-02-08T13:12:00.680Z,2.80
2019-02-08T13:15:07.723Z,1.90
2019-02-08T13:18:13.033Z,1.10
2019-02-08T13:21:18.315Z,1.50
2019-02-08T13:24:24.981Z,1.00
2019-02-08T13:27:30.314Z,1.40
2019-02-08T13:30:35.906Z,1.80
2019-02-08T13:33:41.210Z,1.97
2019-02-08T13:36:46.544Z,2.10
2019-02-08T13:39:52.030Z,2.03
2019-02-08T13:42:57.318Z,2.70
2019-02-08T13:46:02.891Z,4.70
2019-02-08T13:49:08.271Z,2.13
2019-02-08T13:52:13.622Z,2.27
2019-02-08T13:55:20.127Z,3.33
2019-02-08T13:58:25.529Z,3.47
2019-02-08T14:01:30.866Z,2.93
2019-02-08T14:04:36.192Z,2.23
2019-02-08T14:07:41.583Z,2.00
2019-02-08T14:10:46.796Z,2.13
2019-02-08T14:13:52.106Z,2.40
2019-02-08T14:16:57.449Z,2.30
2019-02-08T14:20:02.795Z,1.90
2019-02-08T14:23:08.044Z,2.67
2019-02-08T14:26:13.500Z,3.37
2019-02-08T14:29:18.849Z,3.90
2019-02-08T14:32:24.178Z,5.00
2019-02-08T14:35:29.739Z,4.77
2019-02-08T14:38:35.614Z,4.93
2019-02-08T14:41:41.036Z,4.30
2019-02-08T14:44:46.363Z,3.93
2019-02-08T14:47:51.804Z,3.90
2019-02-08T14:50:57.153Z,4.30
2019-02-08T14:54:02.641Z,4.13
2019-02-08T14:57:16.324Z,4.87
2019-02-08T15:00:18.013Z,4.00
2019-02-08T15:03:23.378Z,5.30
2019-02-08T15:06:28.629Z,4.10
2019-02-08T15:09:33.902Z,6.37
2019-02-08T15:12:39.446Z,5.30
2019-02-08T15:15:44.726Z,6.17
2019-02-08T15:18:50.019Z,5.63
2019-02-08T15:21:55.348Z,5.13
2019-02-08T15:25:00.693Z,5.60
2019-02-08T15:28:06.255Z,4.87
2019-02-08T15:31:11.573Z,10.80
2019-02-08T15:34:16.866Z,7.13
2019-02-08T15:37:22.256Z,5.37
2019-02-08T15:40:42.632Z,4.00
2019-02-08T15:43:47.922Z,6.03
2019-02-08T15:46:53.465Z,7.43
2019-02-08T15:49:58.797Z,8.70
2019-02-08T15:53:04.177Z,7.70
2019-02-08T15:56:13.637Z,6.70
2019-02-08T15:59:18.980Z,5.37
2019-02-08T16:02:24.286Z,2.20
2019-02-08T16:05:30.556Z,4.07
2019-02-08T16:08:35.886Z,6.03
2019-02-08T16:11:41.283Z,2.13
2019-02-08T16:14:46.575Z,2.50
2019-02-08T16:17:52.427Z,2.80
2019-02-08T16:20:57.813Z,2.40
2019-02-08T16:24:03.215Z,2.77
2019-02-08T16:27:08.574Z,3.20
2019-02-08T16:30:19.598Z,2.30
2019-02-08T16:33:24.949Z,2.80
2019-02-08T16:36:30.237Z,1.70
2019-02-08T16:39:35.608Z,5.07
2019-02-08T16:42:41.015Z,8.30
2019-02-08T16:45:46.533Z,5.03
2019-02-08T16:48:51.998Z,3.83
2019-02-08T16:52:28.496Z,5.90
2019-02-08T16:55:37.762Z,7.03
2019-02-08T16:58:43.296Z,6.10
2019-02-08T17:01:48.683Z,6.13
2019-02-08T17:04:54.053Z,6.33
2019-02-08T17:07:59.624Z,5.20
2019-02-08T17:11:18.519Z,6.63
2019-02-08T17:14:23.857Z,4.20
2019-02-08T17:17:29.173Z,3.10
2019-02-08T17:20:39.743Z,4.40
2019-02-08T17:23:45.103Z,4.43
2019-02-08T17:26:50.538Z,5.77
2019-02-08T17:29:56.934Z,5.00
2019-02-08T17:33:02.311Z,2.97
2019-02-08T17:36:07.623Z,4.63
2019-02-08T17:39:14.656Z,5.60
2019-02-08T17:42:20.131Z,5.77
2019-02-08T17:45:25.543Z,9.43
2019-02-08T17:48:30.887Z,8.37
2019-02-08T17:51:36.962Z,8.57
2019-02-08T17:54:42.434Z,7.13
2019-02-08T17:57:47.958Z,14.77
2019-02-08T18:00:55.514Z,24.23
2019-02-08T18:04:00.820Z,14.03
2019-02-08T18:07:06.170Z,10.23
2019-02-08T18:10:15.158Z,10.23
2019-02-08T18:13:20.537Z,14.10
2019-02-08T18:16:26.040Z,16.53
2019-02-08T18:19:31.413Z,25.80
2019-02-08T18:22:36.798Z,23.93
2019-02-08T18:25:42.619Z,25.40
2019-02-08T18:28:48.020Z,21.67
2019-02-08T18:31:53.416Z,24.87
2019-02-08T18:34:58.949Z,18.73
2019-02-08T18:38:05.276Z,19.23
2019-02-08T18:41:10.665Z,17.67
2019-02-08T18:44:16.097Z,18.67
2019-02-08T18:47:21.485Z,26.27
2019-02-08T18:50:29.176Z,18.70
2019-02-08T18:53:34.478Z,18.57
2019-02-08T18:56:39.785Z,17.03
2019-02-08T18:59:45.320Z,16.67
2019-02-08T19:02:50.686Z,18.27
2019-02-08T19:05:56.053Z,23.30
2019-02-08T19:09:01.359Z,22.33
2019-02-08T19:12:08.380Z,25.53
2019-02-08T19:15:15.351Z,40.53
2019-02-08T19:18:20.654Z,35.67
2019-02-08T19:21:25.995Z,42.97
2019-02-08T19:24:31.374Z,20.10
2019-02-08T19:27:36.835Z,28.03
2019-02-08T19:30:42.767Z,22.60
2019-02-08T19:33:48.142Z,25.80
2019-02-08T19:36:53.616Z,25.83
2019-02-08T19:39:59.137Z,24.80
2019-02-08T19:43:04.860Z,27.23
2019-02-08T19:46:10.304Z,30.17
2019-02-08T19:49:15.979Z,28.30
2019-02-08T19:52:21.284Z,27.90
2019-02-08T19:55:27.106Z,27.17
2019-02-08T19:58:34.847Z,26.77
2019-02-08T20:01:40.461Z,28.57
2019-02-08T20:04:45.878Z,26.83
2019-02-08T20:07:51.848Z,16.83
2019-02-08T20:10:57.291Z,10.70
2019-02-08T20:14:02.854Z,10.60
2019-02-08T20:17:08.565Z,8.70
2019-02-08T20:20:14.129Z,7.17
2019-02-08T20:23:19.765Z,6.73
2019-02-08T20:26:25.340Z,8.93
2019-02-08T20:29:31.934Z,9.17
2019-02-08T20:32:38.454Z,10.70
2019-02-08T20:35:43.879Z,9.00
2019-02-08T20:38:49.420Z,10.10
2019-02-08T20:41:54.808Z,8.63
2019-02-08T20:45:00.303Z,9.67
2019-02-08T20:48:12.135Z,8.77
2019-02-08T20:51:17.482Z,8.90
2019-02-08T20:54:22.927Z,11.47
2019-02-08T20:57:28.294Z,9.30
2019-02-08T21:00:37.013Z,10.73
2019-02-08T21:03:42.294Z,11.30
2019-02-08T21:06:47.803Z,9.07
2019-02-08T21:09:53.312Z,8.03
2019-02-08T21:12:58.726Z,9.87
2019-02-08T21:16:04.207Z,9.17
2019-02-08T21:19:09.791Z,18.70
2019-02-08T21:22:15.152Z,20.77
2019-02-08T21:25:23.093Z,13.03
2019-02-08T21:28:29.455Z,12.53
2019-02-08T21:31:34.791Z,11.30
2019-02-08T21:34:40.234Z,12.13
2019-02-08T21:37:45.894Z,13.23
2019-02-08T21:40:51.307Z,14.10
2019-02-08T21:43:56.792Z,14.80
2019-02-08T21:47:02.111Z,13.67
2019-02-08T21:50:10.298Z,13.93
2019-02-08T21:53:15.690Z,13.17
2019-02-08T21:56:21.266Z,13.47
2019-02-08T21:59:26.827Z,13.23
2019-02-08T22:02:32.272Z,12.97
2019-02-08T22:06:00.956Z,17.70
2019-02-08T22:09:08.920Z,19.73
2019-02-08T22:12:15.792Z,18.80
2019-02-08T22:15:24.770Z,18.17
2019-02-08T22:18:30.078Z,16.80
2019-02-08T22:21:35.454Z,13.60
2019-02-08T22:24:40.902Z,16.20
2019-02-08T22:27:46.441Z,10.70
2019-02-08T22:30:51.754Z,10.60
2019-02-08T22:33:57.149Z,9.67
2019-02-08T22:37:02.449Z,10.03
2019-02-08T22:40:10.826Z,10.83
2019-02-08T22:43:16.215Z,11.97
2019-02-08T22:46:21.820Z,12.17
2019-02-08T22:49:27.177Z,10.37
2019-02-08T22:52:32.435Z,12.00
2019-02-08T22:55:37.892Z,11.93
2019-02-08T22:58:43.346Z,10.83
2019-02-08T23:01:51.508Z,9.23
2019-02-08T23:04:59.861Z,7.73
2019-02-08T23:08:06.248Z,8.27
2019-02-08T23:11:11.637Z,8.83
2019-02-08T23:14:17.048Z,10.23
2019-02-08T23:17:22.346Z,7.93
2019-02-08T23:20:27.795Z,7.17
2019-02-08T23:23:33.422Z,5.97
2019-02-08T23:26:38.816Z,6.30
2019-02-08T23:29:44.147Z,4.67
2019-02-08T23:32:49.574Z,5.13
2019-02-08T23:35:55.074Z,4.77
2019-02-08T23:39:00.403Z,5.43
2019-02-08T23:42:07.342Z,4.40
2019-02-08T23:45:14.003Z,4.60
2019-02-08T23:48:19.294Z,5.83
2019-02-08T23:51:24.722Z,4.00
2019-02-08T23:54:29.954Z,5.77
2019-02-08T23:57:36.279Z,4.20
